Accueil
METAR-TAF:

METAR-TAF

Aéroports :

Tajima, Japon

latitude: 35-31N, longitude: 134-48E, altitude: 210 m

Observation

Le bulletin a été fait il y a 12 heures et 47 minutes, à 09:00 UTC
Vent 9 kt de nord, variant entre nord-ouest et nord/nord-est
Température 4°C
Humidité 65%
Pression 1024 hPa
Visibilité 10 km ou plus
Quelques nuages à une hauteur de 2000 ft
Nuages épars à une hauteur de 3500 ft
Nuages fragmentés à une hauteur de 4500 ft
(faible) averses, grésil ou neige roulée, neige

METAR: RJBT 270900Z 36009KT 310V030 9999 -SHGSSN FEW020 SCT035 BKN045 04/M02 Q1024

Heure: 06:47 (21:47 UTC)


TAF: absent

Observations et prévisions météorologiques de plus de 4000 aéroports (messages METAR et TAF).

Les stations disponibles sont représentées par des disques jaunes et rouges sur la carte.

Passer la souris dessus pour voir le nom de la station.

Cliquer dessus pour voir les observations et prévisions météorologiques.

Pour changer de carte: cliquez sur les boutons verts avec une croix noire pour zoomer, sur le bouton vert avec un tiret pour effectuer un zoom arrière, ou sur les flèches vertes pour les cartes adjacentes.


METAR-TAF: